(°C)
19°
20°
22°
23°
25°
26°
26°
(°C)
20°
22°
23°
24°
26°
28°
29°
NNE
NNE
N
N
NNV
VNV
V
(km/h)
3-7
3-8
3-8
2-8
2-8
3-10
4-12
(mm)
0
0
0
0
0
0
0
(%)
0
0
0
0
0
0
0

Elevația soarelui

/ 14.2°
sun-icon
UV 8
05:36
20:22
Al doilea pătrar (349°)
05:00
19:53

METAR pentru Wilmington Manor (KILG)

Ora Condiții Temperatură/
Punctul de rouă
Vânt Vizibilitate Vremea Nori Presiune Schimbă Brut
VFR 17.8°C / 14.4°C 330º 5kt >10km - Clear 1017 - KILG 291051Z 33005KT 10SM CLR 18/14 A3004 RMK AO2 SLP172 T01780144 $
VFR 16.7°C / 12.8°C 340º 3kt >10km - Clear 1016 - KILG 290951Z AUTO 34003KT 10SM CLR 17/13 A3002 RMK AO2 SLP164 T01670128 $
VFR 17.2°C / 12.8°C 340º 3kt >10km - Clear 1015 - KILG 290851Z AUTO 34003KT 10SM CLR 17/13 A2999 RMK AO2 SLP156 T01720128 53011 $
VFR 17.2°C / 13.3°C 10º 6kt >10km - Clear 1014 - KILG 290751Z AUTO 01006KT 10SM CLR 17/13 A2997 RMK AO2 SLP147 T01720133
VFR 18.3°C / 13.3°C 360º 7kt >10km - Few Clouds 4200ft 1014 - KILG 290651Z AUTO 36007KT 10SM FEW042 18/13 A2996 RMK AO2 SLP145 T01830133
VFR 19.4°C / 14.4°C 360º 5kt >10km - Clear 1014 - KILG 290551Z AUTO 36005KT 10SM CLR 19/14 A2996 RMK AO2 SLP145 T01940144 10239 20183 51018
VFR 19.4°C / 15°C 360º 6kt >10km - Clear 1014 - KILG 290451Z AUTO 36006KT 10SM CLR 19/15 A2995 RMK AO2 SLP142 T01940150 402670183
VFR 20°C / 15°C 340º 3kt >10km - Few Clouds 5000ft 1013 - KILG 290351Z AUTO 34003KT 10SM FEW050 20/15 A2994 RMK AO2 SLP138 T02000150
VFR 21.1°C / 15°C 290º 9kt >10km - Clear 1012 - KILG 290251Z AUTO 29009KT 10SM CLR 21/15 A2991 RMK AO2 SLP127 T02110150 51021
VFR 22.2°C / 15°C 260º 8kt >10km - Broken Clouds 7500ft
Broken Clouds 8500ft
1012 - KILG 290151Z 26008KT 10SM BKN075 BKN085 22/15 A2989 RMK AO2 SLP121 T02220150
VFR 21.7°C / 15°C 250º 5kt >10km - Few Clouds 8500ft 1011 - KILG 290051Z 25005KT 10SM FEW085 22/15 A2986 RMK AO2 SLP113 T02170150
VFR 23.9°C / 14.4°C 250º 7kt >10km - Broken Clouds 6000ft 1010 - KILG 282351Z 25007KT 10SM BKN060 24/14 A2984 RMK AO2 SLP106 60002 T02390144 10267 20211 53012
VFR 25°C / 13.9°C 280º 6kt >10km - Few Clouds 9000ft 1010 - KILG 282251Z 28006KT 10SM FEW090 25/14 A2983 RMK AO2 SLP100 T02500139
VFR 25.6°C / 14.4°C 300º 5kt >10km - Scattered Clouds 9000ft 1009 - KILG 282151Z 30005KT 10SM SCT090 26/14 A2982 RMK AO2 SLP096 T02560144
VFR 25°C / 15°C 310º 9kt >10km - Few Clouds 4600ft
Scattered Clouds 6000ft
Broken Clouds 8000ft
1009 - KILG 282051Z 31009KT 10SM FEW046 SCT060 BKN080 25/15 A2981 RMK AO2 SLP094 60002 T02500150 52010
VFR 25°C / 15.6°C 320º 8kt >10km - Scattered Clouds 3900ft
Scattered Clouds 4700ft
1008 - KILG 281951Z 32008KT 10SM SCT039 SCT047 25/16 A2979 RMK AO2 SLP089 T02500156
VFR 23.3°C / 15.6°C 260º 11kt >10km 0.51mm precipitation Broken Clouds 10000ft 1008 - KILG 281851Z 26011KT 10SM BKN100 23/16 A2980 RMK AO2 LTG DSNT E RAB1752E12 SLP089 P0002 T02330156
VFR 23.9°C / 16.7°C 260º 11kt >10km 0.51mm precipitation Clear - KILG 281835Z 26011KT 10SM CLR 24/17 A2980 RMK AO2 LTG DSNT E RAB1752E12 P0002 T02390167
VFR 21.7°C / 16.7°C 270º 12kt Gust 19kt >10km in the Vicinity Thunderstorm 0.51mm precipitation Few Clouds 4100ft
Few Clouds 6000ft
Scattered Clouds 9000ft
- KILG 281815Z 27012G19KT 10SM VCTS FEW041 FEW060 SCT090 22/17 A2980 RMK AO2 LTG DSNT NE AND E RAB1752E12 P0002 T02170167
VFR 24.4°C / 14.4°C 290º 15kt >10km - Few Clouds 4600ft
Few Clouds 7000ft
Scattered Clouds 9000ft
1008 - KILG 281751Z 29015KT 10SM FEW046 FEW070 SCT090 24/14 A2978 RMK AO2 LTG DSNT NE SLP084 T02440144 10261 20189 56001
VFR 25.6°C / 15°C 310º 11kt >10km - Few Clouds 4200ft
Few Clouds 4900ft
Scattered Clouds 5500ft
1008 - KILG 281651Z 31011KT 10SM FEW042 FEW049 SCT055 26/15 A2978 RMK AO2 SLP084 T02560150
VFR 23.3°C / 15°C 280º 8kt >10km - Scattered Clouds 3700ft 1008 - KILG 281551Z 28008KT 10SM SCT037 23/15 A2978 RMK AO2 SLP084 T02330150
VFR 23.3°C / 15.6°C 310º 8kt >10km - Few Clouds 2800ft
Scattered Clouds 3500ft
- KILG 281501Z 31008KT 10SM FEW028 SCT035 23/16 A2978 RMK AO2 T02330156
MVFR 22.2°C / 15°C 290º 10kt >10km - Broken Clouds 2800ft
Broken Clouds 3500ft
1008 - KILG 281451Z 29010KT 10SM BKN028 BKN035 22/15 A2978 RMK AO2 SLP085 T02220150 50010

VFR

17.8°C / 14.4°C

[Mai mult]
Vânt 330º 5kt
Vizibilitate >10km
Vremea -
Nori Clear
Presiune 1017
Schimbă -
Brut KILG 291051Z 33005KT 10SM CLR 18/14 A3004 RMK AO2 SLP172 T01780144 $

VFR

16.7°C / 12.8°C

[Mai mult]
Vânt 340º 3kt
Vizibilitate >10km
Vremea -
Nori Clear
Presiune 1016
Schimbă -
Brut KILG 290951Z AUTO 34003KT 10SM CLR 17/13 A3002 RMK AO2 SLP164 T01670128 $

VFR

17.2°C / 12.8°C

[Mai mult]
Vânt 340º 3kt
Vizibilitate >10km
Vremea -
Nori Clear
Presiune 1015
Schimbă -
Brut KILG 290851Z AUTO 34003KT 10SM CLR 17/13 A2999 RMK AO2 SLP156 T01720128 53011 $

VFR

17.2°C / 13.3°C

[Mai mult]
Vânt 10º 6kt
Vizibilitate >10km
Vremea -
Nori Clear
Presiune 1014
Schimbă -
Brut KILG 290751Z AUTO 01006KT 10SM CLR 17/13 A2997 RMK AO2 SLP147 T01720133

VFR

18.3°C / 13.3°C

[Mai mult]
Vânt 360º 7kt
Vizibilitate >10km
Vremea -
Nori Few Clouds 4200ft
Presiune 1014
Schimbă -
Brut KILG 290651Z AUTO 36007KT 10SM FEW042 18/13 A2996 RMK AO2 SLP145 T01830133

VFR

19.4°C / 14.4°C

[Mai mult]
Vânt 360º 5kt
Vizibilitate >10km
Vremea -
Nori Clear
Presiune 1014
Schimbă -
Brut KILG 290551Z AUTO 36005KT 10SM CLR 19/14 A2996 RMK AO2 SLP145 T01940144 10239 20183 51018

VFR

19.4°C / 15°C

[Mai mult]
Vânt 360º 6kt
Vizibilitate >10km
Vremea -
Nori Clear
Presiune 1014
Schimbă -
Brut KILG 290451Z AUTO 36006KT 10SM CLR 19/15 A2995 RMK AO2 SLP142 T01940150 402670183

VFR

20°C / 15°C

[Mai mult]
Vânt 340º 3kt
Vizibilitate >10km
Vremea -
Nori Few Clouds 5000ft
Presiune 1013
Schimbă -
Brut KILG 290351Z AUTO 34003KT 10SM FEW050 20/15 A2994 RMK AO2 SLP138 T02000150

VFR

21.1°C / 15°C

[Mai mult]
Vânt 290º 9kt
Vizibilitate >10km
Vremea -
Nori Clear
Presiune 1012
Schimbă -
Brut KILG 290251Z AUTO 29009KT 10SM CLR 21/15 A2991 RMK AO2 SLP127 T02110150 51021

VFR

22.2°C / 15°C

[Mai mult]
Vânt 260º 8kt
Vizibilitate >10km
Vremea -
Nori Broken Clouds 7500ft
Broken Clouds 8500ft
Presiune 1012
Schimbă -
Brut KILG 290151Z 26008KT 10SM BKN075 BKN085 22/15 A2989 RMK AO2 SLP121 T02220150

VFR

21.7°C / 15°C

[Mai mult]
Vânt 250º 5kt
Vizibilitate >10km
Vremea -
Nori Few Clouds 8500ft
Presiune 1011
Schimbă -
Brut KILG 290051Z 25005KT 10SM FEW085 22/15 A2986 RMK AO2 SLP113 T02170150

VFR

23.9°C / 14.4°C

[Mai mult]
Vânt 250º 7kt
Vizibilitate >10km
Vremea -
Nori Broken Clouds 6000ft
Presiune 1010
Schimbă -
Brut KILG 282351Z 25007KT 10SM BKN060 24/14 A2984 RMK AO2 SLP106 60002 T02390144 10267 20211 53012

VFR

25°C / 13.9°C

[Mai mult]
Vânt 280º 6kt
Vizibilitate >10km
Vremea -
Nori Few Clouds 9000ft
Presiune 1010
Schimbă -
Brut KILG 282251Z 28006KT 10SM FEW090 25/14 A2983 RMK AO2 SLP100 T02500139

VFR

25.6°C / 14.4°C

[Mai mult]
Vânt 300º 5kt
Vizibilitate >10km
Vremea -
Nori Scattered Clouds 9000ft
Presiune 1009
Schimbă -
Brut KILG 282151Z 30005KT 10SM SCT090 26/14 A2982 RMK AO2 SLP096 T02560144

VFR

25°C / 15°C

[Mai mult]
Vânt 310º 9kt
Vizibilitate >10km
Vremea -
Nori Few Clouds 4600ft
Scattered Clouds 6000ft
Broken Clouds 8000ft
Presiune 1009
Schimbă -
Brut KILG 282051Z 31009KT 10SM FEW046 SCT060 BKN080 25/15 A2981 RMK AO2 SLP094 60002 T02500150 52010

VFR

25°C / 15.6°C

[Mai mult]
Vânt 320º 8kt
Vizibilitate >10km
Vremea -
Nori Scattered Clouds 3900ft
Scattered Clouds 4700ft
Presiune 1008
Schimbă -
Brut KILG 281951Z 32008KT 10SM SCT039 SCT047 25/16 A2979 RMK AO2 SLP089 T02500156

VFR

23.3°C / 15.6°C

[Mai mult]
Vânt 260º 11kt
Vizibilitate >10km
Vremea 0.51mm precipitation
Nori Broken Clouds 10000ft
Presiune 1008
Schimbă -
Brut KILG 281851Z 26011KT 10SM BKN100 23/16 A2980 RMK AO2 LTG DSNT E RAB1752E12 SLP089 P0002 T02330156

VFR

23.9°C / 16.7°C

[Mai mult]
Vânt 260º 11kt
Vizibilitate >10km
Vremea 0.51mm precipitation
Nori Clear
Presiune
Schimbă -
Brut KILG 281835Z 26011KT 10SM CLR 24/17 A2980 RMK AO2 LTG DSNT E RAB1752E12 P0002 T02390167

VFR

21.7°C / 16.7°C

[Mai mult]
Vânt 270º 12kt Gust 19kt
Vizibilitate >10km
Vremea in the Vicinity Thunderstorm 0.51mm precipitation
Nori Few Clouds 4100ft
Few Clouds 6000ft
Scattered Clouds 9000ft
Presiune
Schimbă -
Brut KILG 281815Z 27012G19KT 10SM VCTS FEW041 FEW060 SCT090 22/17 A2980 RMK AO2 LTG DSNT NE AND E RAB1752E12 P0002 T02170167

VFR

24.4°C / 14.4°C

[Mai mult]
Vânt 290º 15kt
Vizibilitate >10km
Vremea -
Nori Few Clouds 4600ft
Few Clouds 7000ft
Scattered Clouds 9000ft
Presiune 1008
Schimbă -
Brut KILG 281751Z 29015KT 10SM FEW046 FEW070 SCT090 24/14 A2978 RMK AO2 LTG DSNT NE SLP084 T02440144 10261 20189 56001

VFR

25.6°C / 15°C

[Mai mult]
Vânt 310º 11kt
Vizibilitate >10km
Vremea -
Nori Few Clouds 4200ft
Few Clouds 4900ft
Scattered Clouds 5500ft
Presiune 1008
Schimbă -
Brut KILG 281651Z 31011KT 10SM FEW042 FEW049 SCT055 26/15 A2978 RMK AO2 SLP084 T02560150

VFR

23.3°C / 15°C

[Mai mult]
Vânt 280º 8kt
Vizibilitate >10km
Vremea -
Nori Scattered Clouds 3700ft
Presiune 1008
Schimbă -
Brut KILG 281551Z 28008KT 10SM SCT037 23/15 A2978 RMK AO2 SLP084 T02330150

VFR

23.3°C / 15.6°C

[Mai mult]
Vânt 310º 8kt
Vizibilitate >10km
Vremea -
Nori Few Clouds 2800ft
Scattered Clouds 3500ft
Presiune
Schimbă -
Brut KILG 281501Z 31008KT 10SM FEW028 SCT035 23/16 A2978 RMK AO2 T02330156

MVFR

22.2°C / 15°C

[Mai mult]
Vânt 290º 10kt
Vizibilitate >10km
Vremea -
Nori Broken Clouds 2800ft
Broken Clouds 3500ft
Presiune 1008
Schimbă -
Brut KILG 281451Z 29010KT 10SM BKN028 BKN035 22/15 A2978 RMK AO2 SLP085 T02220150 50010

TAF pentru Wilmington Manor (KILG)

From till


From till Wind 350º 5kt. Visibility 10km or more. Few Clouds 5000ft.
From till Wind 330º 5kt. Visibility 10km or more. Few Clouds 10000ft.
From till Wind 250º 5kt. Visibility 10km or more. Few Clouds 6000ft. Scattered Clouds 25000ft.
From till Wind 200º 5kt. Visibility 10km or more. Few Clouds 7000ft. Scattered Clouds 25000ft.
From till Wind variable 3kt. Visibility 10km or more. Few Clouds 25000ft.

Brut: KILG 290520Z 2906/3006 35005KT P6SM FEW050 FM291000 33005KT P6SM FEW100 FM291700 25005KT P6SM FEW060 SCT250 FM292000 20005KT P6SM FEW070 SCT250 FM300000 VRB03KT P6SM FEW250

Radar și nowcast de precipitații pentru Wilmington Manor

Burniță
Ușoară
Moderat
Greu
Foarte greu
Grindină

Markerul de locație este plasat în Wilmington Manor. Această animație arată radarul de precipitații pentru ultima oră, precum și o 1h prognoză. Ploaia sau ninsoarea slabă ar putea fi invizibilă pentru radar. Intensitatea precipitațiilor este codificată prin culori, de la albastru deschis la portocaliu.

Imagini satelitare actuale pentru: Wilmington Manor, S.U.A.

Markerul cu locaţia este poziţionat pe Wilmington Manor. [Mai mult]

Imaginea satelitară în timp real combină lumina vizibilă din timpul zilei cu radiația cu infraroșu din timpul nopții. Pe timp de noapte, imaginea nu este întunecată, deoarece radiația cu infraroșu poate detecta diferențele de temperatură. Din păcate, norii joși și ceața sunt greu de recunoscut față de temperatura de la sol, din această cauză putând fi invizibili pe timp de noapte. Imaginile satelitare Meteosat pentru Europa sunt actualizate în timp real din 5 în 5 minute. Imaginile GOES-16/GOES-17 (America de Nord și de Sud) și Himawari (Asia) sunt actualizate din 10 în 10 minute.

Mergi sus